sensor_id;sensor_type;location;lat;lon;timestamp;P1;durP1;ratioP1;P2;durP2;ratioP2
61617;SDS011;47518;51.776;9.370;2023-03-21T00:02:11;9.90;;;5.90;;
61617;SDS011;47518;51.776;9.370;2023-03-21T00:04:36;12.05;;;6.35;;
61617;SDS011;47518;51.776;9.370;2023-03-21T00:07:02;9.60;;;6.43;;
61617;SDS011;47518;51.776;9.370;2023-03-21T00:09:30;11.68;;;6.22;;
61617;SDS011;47518;51.776;9.370;2023-03-21T00:11:56;8.05;;;6.00;;
61617;SDS011;47518;51.776;9.370;2023-03-21T00:14:21;8.93;;;5.80;;
61617;SDS011;47518;51.776;9.370;2023-03-21T00:16:47;8.07;;;5.80;;
61617;SDS011;47518;51.776;9.370;2023-03-21T00:19:14;9.50;;;5.95;;
61617;SDS011;47518;51.776;9.370;2023-03-21T00:21:41;10.60;;;6.10;;
61617;SDS011;47518;51.776;9.370;2023-03-21T00:24:08;10.65;;;5.82;;
61617;SDS011;47518;51.776;9.370;2023-03-21T00:26:33;7.90;;;6.00;;
61617;SDS011;47518;51.776;9.370;2023-03-21T00:28:59;9.02;;;6.25;;
61617;SDS011;47518;51.776;9.370;2023-03-21T00:31:25;9.73;;;6.22;;
61617;SDS011;47518;51.776;9.370;2023-03-21T00:33:51;10.45;;;6.18;;
61617;SDS011;47518;51.776;9.370;2023-03-21T00:36:16;7.28;;;6.05;;
61617;SDS011;47518;51.776;9.370;2023-03-21T00:38:42;10.32;;;6.25;;
61617;SDS011;47518;51.776;9.370;2023-03-21T00:41:08;8.68;;;6.00;;
61617;SDS011;47518;51.776;9.370;2023-03-21T00:43:36;9.85;;;6.75;;
61617;SDS011;47518;51.776;9.370;2023-03-21T00:46:02;8.27;;;6.20;;
61617;SDS011;47518;51.776;9.370;2023-03-21T00:48:28;9.88;;;6.30;;
61617;SDS011;47518;51.776;9.370;2023-03-21T00:50:54;7.57;;;6.07;;
61617;SDS011;47518;51.776;9.370;2023-03-21T00:53:21;9.73;;;6.32;;
61617;SDS011;47518;51.776;9.370;2023-03-21T00:55:48;11.02;;;6.60;;
61617;SDS011;47518;51.776;9.370;2023-03-21T00:58:14;9.43;;;6.15;;
61617;SDS011;47518;51.776;9.370;2023-03-21T01:00:43;8.95;;;6.10;;
61617;SDS011;47518;51.776;9.370;2023-03-21T01:03:11;10.13;;;6.55;;
61617;SDS011;47518;51.776;9.370;2023-03-21T01:05:39;10.20;;;6.72;;
61617;SDS011;47518;51.776;9.370;2023-03-21T01:08:27;10.73;;;6.95;;
61617;SDS011;47518;51.776;9.370;2023-03-21T01:10:55;9.80;;;6.43;;
61617;SDS011;47518;51.776;9.370;2023-03-21T01:13:24;10.00;;;6.90;;
61617;SDS011;47518;51.776;9.370;2023-03-21T01:15:51;12.75;;;7.10;;
61617;SDS011;47518;51.776;9.370;2023-03-21T01:18:20;10.40;;;7.45;;
61617;SDS011;47518;51.776;9.370;2023-03-21T01:20:49;12.88;;;7.03;;
61617;SDS011;47518;51.776;9.370;2023-03-21T01:23:15;10.82;;;7.50;;
61617;SDS011;47518;51.776;9.370;2023-03-21T01:25:41;10.80;;;7.38;;
61617;SDS011;47518;51.776;9.370;2023-03-21T01:28:06;8.35;;;7.28;;
61617;SDS011;47518;51.776;9.370;2023-03-21T01:30:32;12.68;;;7.88;;
61617;SDS011;47518;51.776;9.370;2023-03-21T01:32:58;10.40;;;7.63;;
61617;SDS011;47518;51.776;9.370;2023-03-21T01:35:24;12.45;;;8.05;;
61617;SDS011;47518;51.776;9.370;2023-03-21T01:37:49;11.38;;;7.95;;
61617;SDS011;47518;51.776;9.370;2023-03-21T01:40:16;15.07;;;7.97;;
61617;SDS011;47518;51.776;9.370;2023-03-21T01:42:44;13.45;;;8.40;;
61617;SDS011;47518;51.776;9.370;2023-03-21T01:48:16;12.35;;;8.57;;
61617;SDS011;47518;51.776;9.370;2023-03-21T01:50:43;15.32;;;8.38;;
61617;SDS011;47518;51.776;9.370;2023-03-21T01:53:10;14.88;;;7.80;;
61617;SDS011;47518;51.776;9.370;2023-03-21T01:55:35;12.40;;;7.72;;
61617;SDS011;47518;51.776;9.370;2023-03-21T01:58:02;11.35;;;7.50;;
61617;SDS011;47518;51.776;9.370;2023-03-21T02:00:30;11.13;;;7.28;;
61617;SDS011;47518;51.776;9.370;2023-03-21T02:02:57;12.15;;;8.02;;
61617;SDS011;47518;51.776;9.370;2023-03-21T02:05:31;12.30;;;7.78;;
61617;SDS011;47518;51.776;9.370;2023-03-21T02:08:03;11.63;;;8.10;;
61617;SDS011;47518;51.776;9.370;2023-03-21T02:10:29;15.82;;;7.93;;
61617;SDS011;47518;51.776;9.370;2023-03-21T02:12:57;16.25;;;8.60;;
61617;SDS011;47518;51.776;9.370;2023-03-21T02:15:33;13.35;;;7.90;;
61617;SDS011;47518;51.776;9.370;2023-03-21T02:18:05;15.65;;;8.05;;
61617;SDS011;47518;51.776;9.370;2023-03-21T02:32:57;13.13;;;8.20;;
61617;SDS011;47518;51.776;9.370;2023-03-21T02:46:09;13.30;;;8.02;;
61617;SDS011;47518;51.776;9.370;2023-03-21T02:48:44;14.27;;;7.70;;
61617;SDS011;47518;51.776;9.370;2023-03-21T02:51:17;13.20;;;7.90;;
61617;SDS011;47518;51.776;9.370;2023-03-21T02:53:47;14.48;;;8.30;;
61617;SDS011;47518;51.776;9.370;2023-03-21T02:56:16;16.63;;;8.60;;
61617;SDS011;47518;51.776;9.370;2023-03-21T02:58:44;13.43;;;8.40;;
61617;SDS011;47518;51.776;9.370;2023-03-21T03:01:10;12.75;;;8.05;;
61617;SDS011;47518;51.776;9.370;2023-03-21T03:03:36;14.57;;;8.07;;
61617;SDS011;47518;51.776;9.370;2023-03-21T03:06:06;17.33;;;8.23;;
61617;SDS011;47518;51.776;9.370;2023-03-21T03:08:46;14.07;;;8.02;;
61617;SDS011;47518;51.776;9.370;2023-03-21T03:14:30;11.95;;;7.72;;
61617;SDS011;47518;51.776;9.370;2023-03-21T03:17:09;11.25;;;7.57;;
61617;SDS011;47518;51.776;9.370;2023-03-21T03:30:25;11.80;;;7.88;;
61617;SDS011;47518;51.776;9.370;2023-03-21T03:32:53;12.65;;;7.85;;
61617;SDS011;47518;51.776;9.370;2023-03-21T03:35:23;14.00;;;7.90;;
61617;SDS011;47518;51.776;9.370;2023-03-21T03:37:52;14.13;;;8.48;;
61617;SDS011;47518;51.776;9.370;2023-03-21T03:40:38;12.68;;;7.70;;
61617;SDS011;47518;51.776;9.370;2023-03-21T03:43:09;13.45;;;7.93;;
61617;SDS011;47518;51.776;9.370;2023-03-21T03:48:12;14.30;;;8.50;;
61617;SDS011;47518;51.776;9.370;2023-03-21T03:50:45;12.73;;;8.70;;
61617;SDS011;47518;51.776;9.370;2023-03-21T03:53:21;12.88;;;8.65;;
61617;SDS011;47518;51.776;9.370;2023-03-21T03:55:52;11.98;;;8.25;;
61617;SDS011;47518;51.776;9.370;2023-03-21T03:58:20;17.58;;;8.63;;
61617;SDS011;47518;51.776;9.370;2023-03-21T04:00:51;15.85;;;8.93;;
61617;SDS011;47518;51.776;9.370;2023-03-21T04:03:21;12.48;;;8.77;;
61617;SDS011;47518;51.776;9.370;2023-03-21T04:05:47;15.57;;;9.13;;
61617;SDS011;47518;51.776;9.370;2023-03-21T04:08:13;17.52;;;9.35;;
61617;SDS011;47518;51.776;9.370;2023-03-21T04:10:40;13.20;;;9.32;;
61617;SDS011;47518;51.776;9.370;2023-03-21T04:13:09;17.88;;;9.27;;
61617;SDS011;47518;51.776;9.370;2023-03-21T04:15:36;16.15;;;8.95;;
61617;SDS011;47518;51.776;9.370;2023-03-21T04:18:01;15.30;;;9.68;;
61617;SDS011;47518;51.776;9.370;2023-03-21T04:20:27;17.05;;;9.43;;
61617;SDS011;47518;51.776;9.370;2023-03-21T04:22:56;14.85;;;9.13;;
61617;SDS011;47518;51.776;9.370;2023-03-21T04:25:22;15.55;;;8.65;;
61617;SDS011;47518;51.776;9.370;2023-03-21T04:27:48;15.82;;;8.75;;
61617;SDS011;47518;51.776;9.370;2023-03-21T04:43:19;15.35;;;8.10;;
61617;SDS011;47518;51.776;9.370;2023-03-21T04:45:44;13.65;;;8.32;;
61617;SDS011;47518;51.776;9.370;2023-03-21T04:48:10;15.00;;;8.52;;
61617;SDS011;47518;51.776;9.370;2023-03-21T04:50:35;13.43;;;8.15;;
61617;SDS011;47518;51.776;9.370;2023-03-21T04:53:00;15.00;;;9.02;;
61617;SDS011;47518;51.776;9.370;2023-03-21T04:55:26;11.93;;;8.07;;
61617;SDS011;47518;51.776;9.370;2023-03-21T04:57:53;11.57;;;7.45;;
61617;SDS011;47518;51.776;9.370;2023-03-21T05:00:18;12.90;;;8.05;;
61617;SDS011;47518;51.776;9.370;2023-03-21T05:02:44;13.57;;;8.30;;
61617;SDS011;47518;51.776;9.370;2023-03-21T05:05:11;11.55;;;7.57;;
61617;SDS011;47518;51.776;9.370;2023-03-21T05:07:38;13.43;;;7.68;;
61617;SDS011;47518;51.776;9.370;2023-03-21T05:10:05;12.68;;;7.57;;
61617;SDS011;47518;51.776;9.370;2023-03-21T05:12:32;13.63;;;7.60;;
61617;SDS011;47518;51.776;9.370;2023-03-21T05:14:57;15.27;;;8.93;;
61617;SDS011;47518;51.776;9.370;2023-03-21T05:17:23;12.98;;;7.85;;
61617;SDS011;47518;51.776;9.370;2023-03-21T05:19:49;13.57;;;7.13;;
61617;SDS011;47518;51.776;9.370;2023-03-21T05:22:16;16.42;;;7.75;;
61617;SDS011;47518;51.776;9.370;2023-03-21T05:24:43;10.93;;;7.40;;
61617;SDS011;47518;51.776;9.370;2023-03-21T05:27:14;11.75;;;7.35;;
61617;SDS011;47518;51.776;9.370;2023-03-21T05:29:58;11.65;;;7.20;;
61617;SDS011;47518;51.776;9.370;2023-03-21T05:32:26;12.98;;;7.38;;
61617;SDS011;47518;51.776;9.370;2023-03-21T05:34:51;11.93;;;6.95;;
61617;SDS011;47518;51.776;9.370;2023-03-21T05:37:16;11.35;;;7.53;;
61617;SDS011;47518;51.776;9.370;2023-03-21T05:39:42;14.60;;;7.05;;
61617;SDS011;47518;51.776;9.370;2023-03-21T05:42:07;10.35;;;6.90;;
61617;SDS011;47518;51.776;9.370;2023-03-21T05:44:32;13.73;;;7.55;;
61617;SDS011;47518;51.776;9.370;2023-03-21T05:46:58;14.68;;;7.22;;
61617;SDS011;47518;51.776;9.370;2023-03-21T05:49:23;11.75;;;7.82;;
61617;SDS011;47518;51.776;9.370;2023-03-21T05:51:49;12.80;;;7.40;;
61617;SDS011;47518;51.776;9.370;2023-03-21T05:54:15;14.27;;;7.88;;
61617;SDS011;47518;51.776;9.370;2023-03-21T05:56:40;12.82;;;7.72;;
61617;SDS011;47518;51.776;9.370;2023-03-21T05:59:06;13.55;;;7.57;;
61617;SDS011;47518;51.776;9.370;2023-03-21T06:01:32;15.45;;;7.95;;
61617;SDS011;47518;51.776;9.370;2023-03-21T06:04:00;14.25;;;7.90;;
61617;SDS011;47518;51.776;9.370;2023-03-21T06:06:25;11.15;;;7.68;;
61617;SDS011;47518;51.776;9.370;2023-03-21T06:08:51;14.48;;;7.57;;
61617;SDS011;47518;51.776;9.370;2023-03-21T06:58:42;14.00;;;8.00;;
61617;SDS011;47518;51.776;9.370;2023-03-21T07:01:20;11.80;;;7.43;;
61617;SDS011;47518;51.776;9.370;2023-03-21T07:04:21;13.00;;;7.53;;
61617;SDS011;47518;51.776;9.370;2023-03-21T07:07:33;16.42;;;7.85;;
61617;SDS011;47518;51.776;9.370;2023-03-21T07:13:25;18.58;;;8.07;;
61617;SDS011;47518;51.776;9.370;2023-03-21T07:19:37;12.13;;;7.60;;
61617;SDS011;47518;51.776;9.370;2023-03-21T07:45:25;13.68;;;8.02;;
61617;SDS011;47518;51.776;9.370;2023-03-21T07:48:18;14.93;;;7.80;;
61617;SDS011;47518;51.776;9.370;2023-03-21T07:50:47;17.40;;;8.15;;
61617;SDS011;47518;51.776;9.370;2023-03-21T08:03:19;13.52;;;7.97;;
61617;SDS011;47518;51.776;9.370;2023-03-21T08:06:18;16.00;;;8.35;;
61617;SDS011;47518;51.776;9.370;2023-03-21T08:09:17;15.18;;;8.48;;
61617;SDS011;47518;51.776;9.370;2023-03-21T09:30:35;13.23;;;8.43;;
61617;SDS011;47518;51.776;9.370;2023-03-21T09:40:04;18.13;;;9.38;;
61617;SDS011;47518;51.776;9.370;2023-03-21T09:42:55;13.95;;;8.98;;
61617;SDS011;47518;51.776;9.370;2023-03-21T09:45:40;18.20;;;9.55;;
61617;SDS011;47518;51.776;9.370;2023-03-21T09:54:29;13.50;;;9.05;;
61617;SDS011;47518;51.776;9.370;2023-03-21T09:57:36;18.15;;;9.68;;
61617;SDS011;47518;51.776;9.370;2023-03-21T10:01:01;15.75;;;9.25;;
61617;SDS011;47518;51.776;9.370;2023-03-21T10:10:48;15.93;;;9.70;;
61617;SDS011;47518;51.776;9.370;2023-03-21T10:13:22;16.92;;;9.80;;
61617;SDS011;47518;51.776;9.370;2023-03-21T10:15:56;19.13;;;10.23;;
61617;SDS011;47518;51.776;9.370;2023-03-21T10:18:43;19.08;;;10.32;;
61617;SDS011;47518;51.776;9.370;2023-03-21T10:21:23;19.63;;;9.95;;
61617;SDS011;47518;51.776;9.370;2023-03-21T10:24:47;20.00;;;10.48;;
61617;SDS011;47518;51.776;9.370;2023-03-21T10:28:01;19.98;;;10.25;;
61617;SDS011;47518;51.776;9.370;2023-03-21T11:23:25;21.70;;;10.27;;
61617;SDS011;47518;51.776;9.370;2023-03-21T12:23:43;15.32;;;8.65;;
61617;SDS011;47518;51.776;9.370;2023-03-21T12:26:46;15.82;;;8.90;;
61617;SDS011;47518;51.776;9.370;2023-03-21T12:29:31;13.48;;;8.48;;
61617;SDS011;47518;51.776;9.370;2023-03-21T12:38:24;16.73;;;9.90;;
61617;SDS011;47518;51.776;9.370;2023-03-21T12:54:17;17.80;;;10.10;;
61617;SDS011;47518;51.776;9.370;2023-03-21T12:56:53;17.13;;;10.85;;
61617;SDS011;47518;51.776;9.370;2023-03-21T12:59:42;15.52;;;10.00;;
61617;SDS011;47518;51.776;9.370;2023-03-21T13:02:30;19.27;;;12.32;;
61617;SDS011;47518;51.776;9.370;2023-03-21T13:07:58;16.67;;;10.27;;
61617;SDS011;47518;51.776;9.370;2023-03-21T13:10:36;16.63;;;9.85;;
61617;SDS011;47518;51.776;9.370;2023-03-21T13:13:11;17.40;;;9.77;;
61617;SDS011;47518;51.776;9.370;2023-03-21T13:16:01;13.77;;;9.45;;
61617;SDS011;47518;51.776;9.370;2023-03-21T13:29:32;13.98;;;9.30;;
61617;SDS011;47518;51.776;9.370;2023-03-21T13:32:22;16.98;;;9.60;;
61617;SDS011;47518;51.776;9.370;2023-03-21T13:34:58;12.88;;;9.52;;
61617;SDS011;47518;51.776;9.370;2023-03-21T13:37:30;14.30;;;9.45;;
61617;SDS011;47518;51.776;9.370;2023-03-21T13:40:00;15.68;;;9.93;;
61617;SDS011;47518;51.776;9.370;2023-03-21T13:42:41;13.45;;;9.55;;
61617;SDS011;47518;51.776;9.370;2023-03-21T13:45:24;20.58;;;10.30;;
61617;SDS011;47518;51.776;9.370;2023-03-21T13:47:57;17.27;;;9.95;;
61617;SDS011;47518;51.776;9.370;2023-03-21T13:50:29;15.27;;;9.52;;
61617;SDS011;47518;51.776;9.370;2023-03-21T13:53:21;16.00;;;9.68;;
61617;SDS011;47518;51.776;9.370;2023-03-21T13:55:57;14.68;;;9.13;;
61617;SDS011;47518;51.776;9.370;2023-03-21T13:58:33;13.15;;;9.25;;
61617;SDS011;47518;51.776;9.370;2023-03-21T14:04:09;17.80;;;9.13;;
61617;SDS011;47518;51.776;9.370;2023-03-21T14:09:42;14.82;;;9.10;;
61617;SDS011;47518;51.776;9.370;2023-03-21T14:12:12;11.65;;;8.45;;
61617;SDS011;47518;51.776;9.370;2023-03-21T14:14:40;14.63;;;9.43;;
61617;SDS011;47518;51.776;9.370;2023-03-21T14:17:10;13.27;;;9.00;;
61617;SDS011;47518;51.776;9.370;2023-03-21T14:19:37;13.45;;;9.38;;
61617;SDS011;47518;51.776;9.370;2023-03-21T14:22:08;14.43;;;9.00;;
61617;SDS011;47518;51.776;9.370;2023-03-21T14:24:35;13.63;;;9.23;;
61617;SDS011;47518;51.776;9.370;2023-03-21T14:27:05;14.50;;;8.75;;
61617;SDS011;47518;51.776;9.370;2023-03-21T14:29:33;15.55;;;8.75;;
61617;SDS011;47518;51.776;9.370;2023-03-21T14:32:00;12.77;;;8.60;;
61617;SDS011;47518;51.776;9.370;2023-03-21T14:34:27;11.50;;;8.35;;
61617;SDS011;47518;51.776;9.370;2023-03-21T14:36:55;14.45;;;8.63;;
61617;SDS011;47518;51.776;9.370;2023-03-21T14:39:24;13.65;;;8.27;;
61617;SDS011;47518;51.776;9.370;2023-03-21T14:41:53;11.70;;;8.18;;
61617;SDS011;47518;51.776;9.370;2023-03-21T14:44:32;11.38;;;7.65;;
61617;SDS011;47518;51.776;9.370;2023-03-21T14:49:54;11.52;;;7.57;;
61617;SDS011;47518;51.776;9.370;2023-03-21T14:55:10;11.95;;;7.47;;
61617;SDS011;47518;51.776;9.370;2023-03-21T14:57:39;11.05;;;7.20;;
61617;SDS011;47518;51.776;9.370;2023-03-21T15:00:05;9.80;;;7.30;;
61617;SDS011;47518;51.776;9.370;2023-03-21T15:02:41;10.88;;;7.38;;
61617;SDS011;47518;51.776;9.370;2023-03-21T15:05:27;8.57;;;6.90;;
61617;SDS011;47518;51.776;9.370;2023-03-21T15:07:56;10.52;;;7.07;;
61617;SDS011;47518;51.776;9.370;2023-03-21T15:10:38;12.48;;;7.38;;
61617;SDS011;47518;51.776;9.370;2023-03-21T15:13:12;12.60;;;6.70;;
61617;SDS011;47518;51.776;9.370;2023-03-21T15:15:41;10.10;;;6.53;;
61617;SDS011;47518;51.776;9.370;2023-03-21T15:18:07;8.63;;;6.95;;
61617;SDS011;47518;51.776;9.370;2023-03-21T15:20:37;10.02;;;7.03;;
61617;SDS011;47518;51.776;9.370;2023-03-21T15:23:08;10.48;;;7.45;;
61617;SDS011;47518;51.776;9.370;2023-03-21T15:25:38;11.32;;;7.53;;
61617;SDS011;47518;51.776;9.370;2023-03-21T15:28:04;8.10;;;6.38;;
61617;SDS011;47518;51.776;9.370;2023-03-21T15:30:30;8.75;;;6.40;;
61617;SDS011;47518;51.776;9.370;2023-03-21T15:33:00;7.97;;;6.60;;
61617;SDS011;47518;51.776;9.370;2023-03-21T15:35:37;9.18;;;5.82;;
61617;SDS011;47518;51.776;9.370;2023-03-21T15:38:04;8.05;;;6.50;;
61617;SDS011;47518;51.776;9.370;2023-03-21T15:40:30;10.25;;;6.03;;
61617;SDS011;47518;51.776;9.370;2023-03-21T15:43:04;9.45;;;6.50;;
61617;SDS011;47518;51.776;9.370;2023-03-21T15:45:46;7.18;;;6.00;;
61617;SDS011;47518;51.776;9.370;2023-03-21T15:48:14;9.07;;;6.53;;
61617;SDS011;47518;51.776;9.370;2023-03-21T15:50:42;10.95;;;6.35;;
61617;SDS011;47518;51.776;9.370;2023-03-21T15:53:17;9.68;;;6.65;;
61617;SDS011;47518;51.776;9.370;2023-03-21T15:55:47;9.73;;;6.35;;
61617;SDS011;47518;51.776;9.370;2023-03-21T15:58:20;9.05;;;6.32;;
61617;SDS011;47518;51.776;9.370;2023-03-21T16:00:50;7.93;;;5.82;;
61617;SDS011;47518;51.776;9.370;2023-03-21T16:03:19;7.25;;;5.95;;
61617;SDS011;47518;51.776;9.370;2023-03-21T16:19:16;8.90;;;5.15;;
61617;SDS011;47518;51.776;9.370;2023-03-21T16:21:41;5.82;;;5.07;;
61617;SDS011;47518;51.776;9.370;2023-03-21T16:24:07;8.63;;;5.70;;
61617;SDS011;47518;51.776;9.370;2023-03-21T16:26:36;9.05;;;5.30;;
61617;SDS011;47518;51.776;9.370;2023-03-21T16:29:04;5.78;;;5.15;;
61617;SDS011;47518;51.776;9.370;2023-03-21T16:31:31;6.82;;;5.40;;
61617;SDS011;47518;51.776;9.370;2023-03-21T16:34:02;6.15;;;5.13;;
61617;SDS011;47518;51.776;9.370;2023-03-21T16:36:32;6.20;;;5.13;;
61617;SDS011;47518;51.776;9.370;2023-03-21T16:39:02;8.55;;;5.28;;
61617;SDS011;47518;51.776;9.370;2023-03-21T16:41:37;6.28;;;5.10;;
61617;SDS011;47518;51.776;9.370;2023-03-21T16:44:03;5.93;;;4.53;;
61617;SDS011;47518;51.776;9.370;2023-03-21T16:46:28;6.63;;;4.50;;
61617;SDS011;47518;51.776;9.370;2023-03-21T16:48:55;5.03;;;4.22;;
61617;SDS011;47518;51.776;9.370;2023-03-21T16:51:32;6.68;;;4.47;;
61617;SDS011;47518;51.776;9.370;2023-03-21T16:53:59;5.57;;;4.30;;
61617;SDS011;47518;51.776;9.370;2023-03-21T16:56:36;4.60;;;3.80;;
61617;SDS011;47518;51.776;9.370;2023-03-21T16:59:10;6.93;;;4.40;;
61617;SDS011;47518;51.776;9.370;2023-03-21T17:01:37;5.53;;;4.50;;
61617;SDS011;47518;51.776;9.370;2023-03-21T17:04:05;5.70;;;4.40;;
61617;SDS011;47518;51.776;9.370;2023-03-21T17:06:41;6.32;;;4.22;;
61617;SDS011;47518;51.776;9.370;2023-03-21T17:09:13;5.68;;;4.28;;
61617;SDS011;47518;51.776;9.370;2023-03-21T17:11:43;6.22;;;4.22;;
61617;SDS011;47518;51.776;9.370;2023-03-21T17:14:09;6.40;;;4.40;;
61617;SDS011;47518;51.776;9.370;2023-03-21T17:16:35;5.32;;;4.20;;
61617;SDS011;47518;51.776;9.370;2023-03-21T17:19:08;5.13;;;4.15;;
61617;SDS011;47518;51.776;9.370;2023-03-21T17:21:43;4.32;;;3.80;;
61617;SDS011;47518;51.776;9.370;2023-03-21T17:24:08;5.32;;;4.82;;
61617;SDS011;47518;51.776;9.370;2023-03-21T17:26:34;4.60;;;4.13;;
61617;SDS011;47518;51.776;9.370;2023-03-21T17:29:00;4.72;;;4.18;;
61617;SDS011;47518;51.776;9.370;2023-03-21T17:31:26;4.43;;;4.03;;
61617;SDS011;47518;51.776;9.370;2023-03-21T17:33:56;4.45;;;4.05;;
61617;SDS011;47518;51.776;9.370;2023-03-21T17:39:07;6.43;;;4.50;;
61617;SDS011;47518;51.776;9.370;2023-03-21T17:41:36;5.40;;;4.80;;
61617;SDS011;47518;51.776;9.370;2023-03-21T17:44:02;6.07;;;5.07;;
61617;SDS011;47518;51.776;9.370;2023-03-21T17:46:28;5.00;;;4.50;;
61617;SDS011;47518;51.776;9.370;2023-03-21T17:48:57;5.35;;;4.47;;
61617;SDS011;47518;51.776;9.370;2023-03-21T17:51:22;9.43;;;4.57;;
61617;SDS011;47518;51.776;9.370;2023-03-21T17:53:53;6.18;;;5.20;;
61617;SDS011;47518;51.776;9.370;2023-03-21T17:56:20;7.63;;;5.50;;
61617;SDS011;47518;51.776;9.370;2023-03-21T17:58:49;8.27;;;5.97;;
61617;SDS011;47518;51.776;9.370;2023-03-21T18:01:15;4.70;;;4.30;;
61617;SDS011;47518;51.776;9.370;2023-03-21T18:03:41;6.22;;;4.80;;
61617;SDS011;47518;51.776;9.370;2023-03-21T18:06:17;4.78;;;4.35;;
61617;SDS011;47518;51.776;9.370;2023-03-21T18:08:45;5.38;;;4.93;;
61617;SDS011;47518;51.776;9.370;2023-03-21T18:11:12;5.50;;;4.35;;
61617;SDS011;47518;51.776;9.370;2023-03-21T18:13:39;7.07;;;5.18;;
61617;SDS011;47518;51.776;9.370;2023-03-21T18:16:05;5.80;;;5.03;;
61617;SDS011;47518;51.776;9.370;2023-03-21T18:18:30;5.50;;;4.65;;
61617;SDS011;47518;51.776;9.370;2023-03-21T18:20:59;5.70;;;5.10;;
61617;SDS011;47518;51.776;9.370;2023-03-21T18:23:24;5.57;;;5.00;;
61617;SDS011;47518;51.776;9.370;2023-03-21T18:25:50;5.47;;;4.38;;
61617;SDS011;47518;51.776;9.370;2023-03-21T18:28:16;7.47;;;5.35;;
61617;SDS011;47518;51.776;9.370;2023-03-21T18:30:42;6.78;;;5.38;;
61617;SDS011;47518;51.776;9.370;2023-03-21T18:33:07;7.32;;;4.80;;
61617;SDS011;47518;51.776;9.370;2023-03-21T18:35:33;7.55;;;5.18;;
61617;SDS011;47518;51.776;9.370;2023-03-21T18:37:58;5.72;;;4.80;;
61617;SDS011;47518;51.776;9.370;2023-03-21T18:40:24;6.13;;;5.53;;
61617;SDS011;47518;51.776;9.370;2023-03-21T18:42:49;5.28;;;4.60;;
61617;SDS011;47518;51.776;9.370;2023-03-21T18:45:15;5.60;;;4.75;;
61617;SDS011;47518;51.776;9.370;2023-03-21T18:47:43;6.28;;;5.60;;
61617;SDS011;47518;51.776;9.370;2023-03-21T18:50:09;5.75;;;5.25;;
61617;SDS011;47518;51.776;9.370;2023-03-21T18:52:36;5.72;;;5.22;;
61617;SDS011;47518;51.776;9.370;2023-03-21T18:55:02;6.22;;;5.20;;
61617;SDS011;47518;51.776;9.370;2023-03-21T18:57:28;8.05;;;5.32;;
61617;SDS011;47518;51.776;9.370;2023-03-21T18:59:54;8.35;;;5.35;;
61617;SDS011;47518;51.776;9.370;2023-03-21T19:02:20;8.20;;;6.20;;
61617;SDS011;47518;51.776;9.370;2023-03-21T19:04:46;7.25;;;5.40;;
61617;SDS011;47518;51.776;9.370;2023-03-21T19:07:11;6.85;;;6.03;;
61617;SDS011;47518;51.776;9.370;2023-03-21T19:09:37;7.28;;;5.80;;
61617;SDS011;47518;51.776;9.370;2023-03-21T19:12:03;9.88;;;6.70;;
61617;SDS011;47518;51.776;9.370;2023-03-21T19:14:28;7.10;;;6.00;;
61617;SDS011;47518;51.776;9.370;2023-03-21T19:16:54;7.68;;;6.15;;
61617;SDS011;47518;51.776;9.370;2023-03-21T19:19:25;7.93;;;6.13;;
61617;SDS011;47518;51.776;9.370;2023-03-21T19:21:51;9.52;;;6.38;;
61617;SDS011;47518;51.776;9.370;2023-03-21T19:24:17;8.00;;;5.88;;
61617;SDS011;47518;51.776;9.370;2023-03-21T19:26:43;10.18;;;6.57;;
61617;SDS011;47518;51.776;9.370;2023-03-21T19:29:10;7.35;;;6.20;;
61617;SDS011;47518;51.776;9.370;2023-03-21T19:31:38;9.10;;;6.35;;
61617;SDS011;47518;51.776;9.370;2023-03-21T19:34:03;9.57;;;6.55;;
61617;SDS011;47518;51.776;9.370;2023-03-21T19:36:35;8.98;;;6.63;;
61617;SDS011;47518;51.776;9.370;2023-03-21T19:39:08;8.73;;;6.78;;
61617;SDS011;47518;51.776;9.370;2023-03-21T19:41:34;9.48;;;6.68;;
61617;SDS011;47518;51.776;9.370;2023-03-21T19:44:00;6.90;;;6.18;;
61617;SDS011;47518;51.776;9.370;2023-03-21T19:46:25;8.88;;;6.80;;
61617;SDS011;47518;51.776;9.370;2023-03-21T19:48:51;8.88;;;7.07;;
61617;SDS011;47518;51.776;9.370;2023-03-21T19:51:18;10.82;;;9.13;;
61617;SDS011;47518;51.776;9.370;2023-03-21T19:53:43;11.32;;;7.53;;
61617;SDS011;47518;51.776;9.370;2023-03-21T19:56:09;7.07;;;6.13;;
61617;SDS011;47518;51.776;9.370;2023-03-21T19:58:37;9.40;;;6.78;;
61617;SDS011;47518;51.776;9.370;2023-03-21T20:01:02;9.32;;;7.70;;
61617;SDS011;47518;51.776;9.370;2023-03-21T20:03:27;11.63;;;7.28;;
61617;SDS011;47518;51.776;9.370;2023-03-21T20:05:59;10.02;;;6.80;;
61617;SDS011;47518;51.776;9.370;2023-03-21T20:08:27;8.07;;;6.97;;
61617;SDS011;47518;51.776;9.370;2023-03-21T20:10:53;9.85;;;7.47;;
61617;SDS011;47518;51.776;9.370;2023-03-21T20:13:18;8.65;;;6.97;;
61617;SDS011;47518;51.776;9.370;2023-03-21T20:15:43;9.77;;;7.65;;
61617;SDS011;47518;51.776;9.370;2023-03-21T20:18:09;10.23;;;7.80;;
61617;SDS011;47518;51.776;9.370;2023-03-21T20:20:34;10.25;;;8.32;;
61617;SDS011;47518;51.776;9.370;2023-03-21T20:22:59;14.05;;;8.68;;
61617;SDS011;47518;51.776;9.370;2023-03-21T20:25:25;10.73;;;7.72;;
61617;SDS011;47518;51.776;9.370;2023-03-21T20:27:51;10.38;;;7.40;;
61617;SDS011;47518;51.776;9.370;2023-03-21T20:30:16;10.73;;;7.88;;
61617;SDS011;47518;51.776;9.370;2023-03-21T20:32:43;12.07;;;8.10;;
61617;SDS011;47518;51.776;9.370;2023-03-21T20:35:12;11.20;;;7.90;;
61617;SDS011;47518;51.776;9.370;2023-03-21T20:37:43;10.60;;;8.13;;
61617;SDS011;47518;51.776;9.370;2023-03-21T20:40:13;11.50;;;8.35;;
61617;SDS011;47518;51.776;9.370;2023-03-21T20:42:40;11.30;;;8.35;;
61617;SDS011;47518;51.776;9.370;2023-03-21T20:45:13;12.18;;;8.80;;
61617;SDS011;47518;51.776;9.370;2023-03-21T20:47:40;10.45;;;8.80;;
61617;SDS011;47518;51.776;9.370;2023-03-21T20:50:06;11.35;;;8.32;;
61617;SDS011;47518;51.776;9.370;2023-03-21T20:52:35;10.40;;;8.70;;
61617;SDS011;47518;51.776;9.370;2023-03-21T20:55:00;10.18;;;8.40;;
61617;SDS011;47518;51.776;9.370;2023-03-21T20:57:27;10.57;;;8.00;;
61617;SDS011;47518;51.776;9.370;2023-03-21T20:59:52;11.35;;;7.72;;
61617;SDS011;47518;51.776;9.370;2023-03-21T21:02:19;11.25;;;7.72;;
61617;SDS011;47518;51.776;9.370;2023-03-21T21:04:46;11.07;;;8.65;;
61617;SDS011;47518;51.776;9.370;2023-03-21T21:07:13;10.95;;;8.52;;
61617;SDS011;47518;51.776;9.370;2023-03-21T21:09:41;10.98;;;8.50;;
61617;SDS011;47518;51.776;9.370;2023-03-21T21:12:08;11.15;;;8.88;;
61617;SDS011;47518;51.776;9.370;2023-03-21T21:14:34;10.70;;;8.93;;
61617;SDS011;47518;51.776;9.370;2023-03-21T21:16:59;11.35;;;8.55;;
61617;SDS011;47518;51.776;9.370;2023-03-21T21:19:25;11.55;;;8.55;;
61617;SDS011;47518;51.776;9.370;2023-03-21T21:21:50;10.23;;;8.52;;
61617;SDS011;47518;51.776;9.370;2023-03-21T21:24:16;11.90;;;8.98;;
61617;SDS011;47518;51.776;9.370;2023-03-21T21:26:44;13.93;;;9.85;;
61617;SDS011;47518;51.776;9.370;2023-03-21T21:29:11;14.60;;;10.13;;
61617;SDS011;47518;51.776;9.370;2023-03-21T21:31:44;12.80;;;9.90;;
61617;SDS011;47518;51.776;9.370;2023-03-21T21:34:12;12.23;;;9.25;;
61617;SDS011;47518;51.776;9.370;2023-03-21T21:36:42;16.27;;;9.38;;
61617;SDS011;47518;51.776;9.370;2023-03-21T21:39:09;13.05;;;9.65;;
61617;SDS011;47518;51.776;9.370;2023-03-21T21:41:35;15.27;;;10.15;;
61617;SDS011;47518;51.776;9.370;2023-03-21T21:44:00;12.48;;;9.55;;
61617;SDS011;47518;51.776;9.370;2023-03-21T21:46:26;13.43;;;9.63;;
61617;SDS011;47518;51.776;9.370;2023-03-21T21:48:51;12.32;;;9.77;;
61617;SDS011;47518;51.776;9.370;2023-03-21T21:51:17;14.00;;;9.50;;